Time;durP1;ratioP1;P1;durP2;ratioP2;P2;SDS_P1;SDS_P2;PMS_P1;PMS_P2;Temp;Humidity;BMP_temperature;BMP_pressure;BME280_temperature;BME280_humidity;BME280_pressure;Samples;Min_cycle;Max_cycle;Signal;HPM_P1;HPM_P2
2023/05/03 00:01:29;;;;;;;5.40;3.50;;;15.70;86.00;;;;;;5009624;28;20046;-77
2023/05/03 00:03:57;;;;;;;6.30;3.58;;;15.70;86.50;;;;;;5005344;28;20043;-77
2023/05/03 00:06:27;;;;;;;5.00;3.33;;;15.70;86.30;;;;;;4979566;28;20050;-78
2023/05/03 00:08:56;;;;;;;7.85;3.55;;;15.70;86.70;;;;;;5017586;28;20463;-78
2023/05/03 00:11:23;;;;;;;7.68;4.30;;;15.70;87.70;;;;;;5017684;28;20077;-75
2023/05/03 00:13:56;;;;;;;7.60;3.70;;;15.70;86.30;;;;;;4989329;28;20078;-76
2023/05/03 00:16:31;;;;;;;6.55;3.80;;;15.80;85.90;;;;;;4983388;28;20113;-79
2023/05/03 00:18:58;;;;;;;6.57;3.92;;;15.70;86.40;;;;;;5006750;28;20112;-77
2023/05/03 00:21:28;;;;;;;6.93;4.18;;;15.60;87.10;;;;;;4989662;28;20073;-77
2023/05/03 00:23:58;;;;;;;6.20;4.25;;;15.60;87.70;;;;;;5000004;28;20050;-75
2023/05/03 00:26:45;;;;;;;5.67;3.63;;;15.60;88.40;;;;;;4991804;28;20105;-77
2023/05/03 00:29:13;;;;;;;6.85;4.10;;;15.60;88.80;;;;;;5001159;28;20053;-77
2023/05/03 00:31:43;;;;;;;7.57;4.10;;;15.50;90.00;;;;;;4951599;28;20098;-75
2023/05/03 00:34:10;;;;;;;6.05;3.97;;;15.40;90.30;;;;;;4985454;28;20081;-77
2023/05/03 00:36:38;;;;;;;6.80;3.88;;;15.30;90.60;;;;;;5004858;28;20153;-75
2023/05/03 00:39:05;;;;;;;7.32;4.07;;;15.20;91.30;;;;;;4977609;28;20061;-74
2023/05/03 00:41:34;;;;;;;9.45;4.40;;;15.20;91.70;;;;;;4983539;28;20108;-76
2023/05/03 00:44:02;;;;;;;6.00;3.95;;;15.10;92.20;;;;;;5010869;23;20050;-73
2023/05/03 00:46:43;;;;;;;5.13;3.63;;;15.00;92.50;;;;;;4997414;28;20049;-74
2023/05/03 00:49:11;;;;;;;5.10;3.58;;;15.10;92.70;;;;;;4995417;28;20050;-79
2023/05/03 00:51:39;;;;;;;6.68;3.50;;;15.00;93.10;;;;;;5013492;28;20050;-73
2023/05/03 00:54:07;;;;;;;9.98;4.10;;;15.00;92.90;;;;;;5022903;28;20053;-79
2023/05/03 00:56:34;;;;;;;6.85;4.07;;;14.90;92.90;;;;;;5005448;28;20057;-79
2023/05/03 00:59:17;;;;;;;6.65;3.85;;;15.00;92.70;;;;;;5020700;28;21247;-79
2023/05/03 01:01:51;;;;;;;5.30;3.80;;;15.10;92.80;;;;;;5020502;28;20510;-77
2023/05/03 01:04:20;;;;;;;6.97;3.72;;;15.10;92.40;;;;;;5003140;28;20042;-77
2023/05/03 01:06:58;;;;;;;5.97;3.58;;;15.10;92.40;;;;;;4983163;28;20053;-74
2023/05/03 01:09:53;;;;;;;6.20;4.07;;;15.00;93.00;;;;;;5015121;28;20069;-76
2023/05/03 01:12:57;;;;;;;5.78;3.90;;;14.90;93.30;;;;;;5017461;28;20038;-75
2023/05/03 01:15:49;;;;;;;5.78;3.80;;;14.80;93.60;;;;;;4984867;28;20873;-75
2023/05/03 01:18:21;;;;;;;6.35;3.50;;;15.00;93.80;;;;;;5012848;28;20052;-75
2023/05/03 01:20:50;;;;;;;6.25;3.83;;;15.00;94.00;;;;;;5004930;28;20062;-76
2023/05/03 01:23:49;;;;;;;5.55;3.72;;;15.00;94.30;;;;;;5016984;28;20046;-77
2023/05/03 01:26:24;;;;;;;6.25;3.90;;;15.00;94.60;;;;;;5020568;28;20046;-76
2023/05/03 01:28:53;;;;;;;5.93;3.67;;;14.90;95.00;;;;;;5023147;28;20062;-79
2023/05/03 01:31:41;;;;;;;6.45;3.72;;;15.00;95.40;;;;;;5027274;28;20050;-76
2023/05/03 01:34:27;;;;;;;5.40;4.05;;;15.00;95.60;;;;;;5004087;28;20050;-78
2023/05/03 01:36:58;;;;;;;5.20;3.45;;;15.00;96.10;;;;;;5023444;28;20052;-79
2023/05/03 01:39:50;;;;;;;5.20;3.60;;;14.90;96.60;;;;;;5020994;28;20052;-76
2023/05/03 01:42:37;;;;;;;5.65;4.15;;;14.90;97.00;;;;;;5010169;28;20021;-78
2023/05/03 01:45:05;;;;;;;6.63;4.05;;;14.90;97.50;;;;;;5005643;28;20046;-80
2023/05/03 01:47:33;;;;;;;5.78;3.58;;;14.80;97.90;;;;;;5042266;28;20048;-74
2023/05/03 01:50:00;;;;;;;6.53;3.97;;;14.80;98.50;;;;;;5042691;28;20041;-77
2023/05/03 01:52:29;;;;;;;5.95;3.80;;;14.80;98.50;;;;;;5023561;28;20133;-77
2023/05/03 01:55:00;;;;;;;5.60;4.05;;;14.90;99.10;;;;;;5025931;28;20048;-74
2023/05/03 01:57:30;;;;;;;4.80;3.55;;;14.90;99.00;;;;;;5009472;28;20045;-81
2023/05/03 01:59:58;;;;;;;7.15;4.00;;;14.80;99.70;;;;;;5021132;28;20050;-81
2023/05/03 02:02:25;;;;;;;6.05;3.72;;;14.80;99.50;;;;;;5040882;28;20050;-79
2023/05/03 02:05:08;;;;;;;5.05;3.65;;;14.80;99.40;;;;;;5047598;28;20061;-79
2023/05/03 02:07:48;;;;;;;6.50;3.75;;;14.80;99.50;;;;;;5017527;28;20121;-78
2023/05/03 02:10:30;;;;;;;9.43;3.95;;;14.90;99.60;;;;;;5041270;28;20059;-76
2023/05/03 02:12:57;;;;;;;6.97;3.47;;;14.90;99.60;;;;;;5042841;28;20069;-77
2023/05/03 02:15:25;;;;;;;4.85;3.53;;;14.90;99.90;;;;;;5041709;28;20528;-78
2023/05/03 02:17:54;;;;;;;8.38;4.18;;;14.80;99.90;;;;;;5039154;28;20128;-77
2023/05/03 02:20:21;;;;;;;5.40;3.70;;;14.80;99.90;;;;;;5028738;28;20060;-78
2023/05/03 02:22:49;;;;;;;5.47;4.00;;;14.80;99.90;;;;;;5043379;28;20061;-78
2023/05/03 02:25:17;;;;;;;4.80;3.58;;;14.80;99.90;;;;;;5042213;28;20053;-76
2023/05/03 02:27:44;;;;;;;5.90;3.60;;;14.80;99.90;;;;;;5037772;28;20049;-77
2023/05/03 02:30:12;;;;;;;5.72;3.85;;;14.70;99.90;;;;;;5036727;28;20045;-74
2023/05/03 02:32:39;;;;;;;8.73;4.13;;;14.70;99.90;;;;;;5037698;28;20117;-76
2023/05/03 02:35:07;;;;;;;5.78;3.83;;;14.70;99.90;;;;;;5026104;28;20108;-78
2023/05/03 02:37:34;;;;;;;7.93;4.05;;;14.70;99.90;;;;;;5024492;28;20141;-76
2023/05/03 02:40:04;;;;;;;5.53;4.10;;;14.70;99.90;;;;;;5041962;28;20046;-77
2023/05/03 02:42:32;;;;;;;6.53;4.38;;;14.70;99.90;;;;;;5042044;28;20049;-80
2023/05/03 02:44:59;;;;;;;5.10;3.47;;;14.60;99.90;;;;;;5040942;28;20103;-75
2023/05/03 02:47:27;;;;;;;6.18;4.10;;;14.70;99.90;;;;;;5022135;28;20127;-77
2023/05/03 02:49:55;;;;;;;7.60;3.90;;;14.70;99.90;;;;;;5037721;28;20104;-76
2023/05/03 02:52:42;;;;;;;5.65;3.70;;;14.70;99.90;;;;;;5038138;28;20104;-74
2023/05/03 02:55:09;;;;;;;7.18;3.50;;;14.70;99.90;;;;;;4992248;28;20380;-77
2023/05/03 02:57:36;;;;;;;7.03;4.00;;;14.70;99.90;;;;;;5017973;28;20153;-75
2023/05/03 03:00:06;;;;;;;4.88;3.63;;;14.60;99.90;;;;;;5023822;28;20117;-77
2023/05/03 03:02:34;;;;;;;5.40;3.85;;;14.60;99.90;;;;;;5028395;28;20113;-74
2023/05/03 03:05:01;;;;;;;5.85;3.75;;;14.60;99.90;;;;;;5029808;28;20478;-77
2023/05/03 03:07:29;;;;;;;5.68;3.50;;;14.60;99.90;;;;;;5031581;28;20046;-72
2023/05/03 03:10:04;;;;;;;7.70;4.18;;;14.60;99.90;;;;;;5038300;28;20537;-73
2023/05/03 03:12:34;;;;;;;11.38;4.35;;;14.50;99.90;;;;;;5009962;28;20049;-73
2023/05/03 03:15:02;;;;;;;;;;;14.60;99.90;;;;;;5016190;28;20041;-75
2023/05/03 03:17:38;;;;;;;6.22;3.70;;;14.50;99.90;;;;;;5005995;28;19921;-73
2023/05/03 03:20:11;;;;;;;6.45;3.75;;;14.50;99.90;;;;;;5000523;28;20045;-73
2023/05/03 03:22:42;;;;;;;6.15;4.07;;;14.50;99.90;;;;;;4999440;28;20116;-73
2023/05/03 03:25:10;;;;;;;6.80;4.43;;;14.50;99.90;;;;;;4988347;28;20083;-75
2023/05/03 03:27:37;;;;;;;8.82;4.32;;;14.50;99.90;;;;;;5016734;28;20050;-74
2023/05/03 03:30:07;;;;;;;6.40;4.10;;;14.40;99.90;;;;;;5014257;28;20084;-75
2023/05/03 03:32:34;;;;;;;7.72;4.22;;;14.40;99.90;;;;;;5016983;28;20056;-74
2023/05/03 03:35:02;;;;;;;6.75;4.43;;;14.30;99.90;;;;;;5022113;28;20050;-77
2023/05/03 03:37:29;;;;;;;6.40;4.18;;;14.30;99.90;;;;;;5014039;28;20129;-73
2023/05/03 03:39:57;;;;;;;5.30;3.50;;;14.40;99.90;;;;;;5014884;28;20077;-73
2023/05/03 03:42:24;;;;;;;6.55;3.92;;;14.40;99.90;;;;;;5020677;28;20467;-73
2023/05/03 03:44:52;;;;;;;7.03;4.40;;;14.40;99.90;;;;;;5028661;28;20112;-74
2023/05/03 03:47:19;;;;;;;7.35;3.92;;;14.40;99.90;;;;;;5034363;28;20050;-74
2023/05/03 03:49:47;;;;;;;6.07;3.92;;;14.30;99.90;;;;;;5028602;28;20071;-73
2023/05/03 03:52:14;;;;;;;8.93;4.00;;;14.40;99.90;;;;;;5012336;28;20049;-73
2023/05/03 03:54:42;;;;;;;6.50;4.30;;;14.40;99.90;;;;;;5032151;28;20052;-73
2023/05/03 03:57:15;;;;;;;6.85;5.10;;;14.40;99.90;;;;;;5019589;28;20100;-73
2023/05/03 03:59:45;;;;;;;7.10;5.38;;;14.40;99.90;;;;;;5023805;28;20057;-74
2023/05/03 04:02:12;;;;;;;7.15;5.57;;;14.40;99.90;;;;;;5009842;28;20407;-75
2023/05/03 04:04:40;;;;;;;10.80;6.10;;;14.40;99.90;;;;;;5033344;28;20045;-78
2023/05/03 04:07:08;;;;;;;7.10;4.43;;;14.40;99.90;;;;;;5037196;28;20050;-78
2023/05/03 04:09:35;;;;;;;7.35;4.10;;;14.20;99.90;;;;;;5033941;28;20049;-75
2023/05/03 04:12:16;;;;;;;7.32;4.60;;;14.30;99.90;;;;;;5057780;22;20132;-74
2023/05/03 04:14:50;;;;;;;6.07;4.43;;;14.30;99.90;;;;;;4980387;28;20114;-74
2023/05/03 04:17:17;;;;;;;7.32;4.38;;;14.30;99.90;;;;;;4994674;28;20064;-74
2023/05/03 04:19:46;;;;;;;5.22;4.03;;;14.10;99.90;;;;;;4981373;28;20050;-75
2023/05/03 04:22:32;;;;;;;7.90;3.88;;;14.20;99.90;;;;;;4956389;28;20051;-74
2023/05/03 04:25:21;;;;;;;8.48;4.53;;;14.20;99.90;;;;;;4978346;28;20091;-73
2023/05/03 04:27:53;;;;;;;6.25;3.90;;;14.20;99.90;;;;;;4962037;28;20062;-74
2023/05/03 04:30:30;;;;;;;7.70;4.30;;;14.20;99.90;;;;;;4967388;28;20051;-74
2023/05/03 04:33:02;;;;;;;7.30;4.82;;;14.30;99.90;;;;;;4958041;28;20119;-73
2023/05/03 04:35:30;;;;;;;6.88;4.35;;;14.20;99.90;;;;;;4970954;28;20448;-74
2023/05/03 04:37:57;;;;;;;5.88;4.32;;;14.20;99.90;;;;;;4977955;28;20058;-74
2023/05/03 04:40:25;;;;;;;10.23;4.63;;;14.20;99.90;;;;;;4970280;28;20417;-74
2023/05/03 04:42:53;;;;;;;6.97;4.95;;;14.10;99.90;;;;;;4977017;28;20126;-74
2023/05/03 04:45:38;;;;;;;6.55;4.28;;;14.10;99.90;;;;;;4977403;28;20075;-75
2023/05/03 04:48:27;;;;;;;6.72;4.30;;;14.10;99.90;;;;;;4973331;28;20050;-75
2023/05/03 04:50:54;;;;;;;8.15;4.53;;;14.10;99.90;;;;;;4956990;28;20134;-73
2023/05/03 04:53:25;;;;;;;6.43;4.63;;;14.00;99.90;;;;;;5002099;23;20176;-74
2023/05/03 04:55:52;;;;;;;;;;;14.00;99.90;;;;;;4991627;28;20096;-74
2023/05/03 04:58:54;;;;;;;7.97;5.22;;;14.00;99.90;;;;;;5033513;28;19922;-73
2023/05/03 05:01:31;;;;;;;22.42;11.57;;;14.10;99.90;;;;;;5006695;28;20045;-74
2023/05/03 05:04:06;;;;;;;47.55;28.60;;;14.30;99.90;;;;;;5023683;28;20045;-73
2023/05/03 05:07:11;;;;;;;76.63;43.03;;;14.40;99.90;;;;;;5019750;28;20029;-74
2023/05/03 05:09:41;;;;;;;51.97;34.90;;;14.60;99.90;;;;;;5010041;28;20081;-74
2023/05/03 05:15:37;;;;;;;20.88;14.05;;;14.80;99.90;;;;;;5027251;28;20058;-73
2023/05/03 05:18:36;;;;;;;7.20;5.63;;;14.80;99.90;;;;;;4985619;28;20038;-77
2023/05/03 05:21:04;;;;;;;8.45;5.18;;;14.60;99.90;;;;;;5042290;28;20077;-78
2023/05/03 05:23:35;;;;;;;7.40;4.80;;;14.60;99.90;;;;;;5025194;28;20030;-76
2023/05/03 05:26:17;;;;;;;6.90;4.63;;;14.50;99.90;;;;;;4996126;28;20054;-74
2023/05/03 05:28:50;;;;;;;7.32;4.88;;;14.40;99.90;;;;;;4998004;28;20058;-73
2023/05/03 05:31:20;;;;;;;7.95;4.80;;;14.40;99.90;;;;;;5004439;28;20069;-76
2023/05/03 05:33:48;;;;;;;8.63;4.47;;;14.30;99.90;;;;;;5027369;28;20074;-74
2023/05/03 05:36:21;;;;;;;7.60;5.15;;;14.30;99.90;;;;;;5007105;28;20078;-76
2023/05/03 05:38:52;;;;;;;8.02;4.97;;;14.40;99.90;;;;;;5016174;28;20052;-75
2023/05/03 05:41:22;;;;;;;9.35;4.80;;;14.30;99.90;;;;;;4977336;28;20054;-73
2023/05/03 05:43:55;;;;;;;10.38;6.53;;;14.30;99.90;;;;;;5069245;23;20049;-74
2023/05/03 05:46:58;;;;;;;45.65;25.30;;;14.30;99.90;;;;;;5059858;28;20037;-73
2023/05/03 05:49:44;;;;;;;52.85;35.33;;;14.50;99.90;;;;;;5057642;28;20126;-75
2023/05/03 05:52:21;;;;;;;;;;;14.70;99.90;;;;;;5038718;28;20459;-74
2023/05/03 05:58:25;;;;;;;8.10;5.55;;;14.30;99.90;;;;;;5036760;28;20049;-76
2023/05/03 06:01:15;;;;;;;9.43;5.53;;;14.10;99.90;;;;;;5039977;28;20048;-73
2023/05/03 06:04:03;;;;;;;;;;;14.10;99.90;;;;;;4996576;28;20180;-73
2023/05/03 06:06:39;;;;;;;8.27;5.32;;;14.30;99.90;;;;;;5024471;28;19927;-77
2023/05/03 06:09:07;;;;;;;8.98;5.50;;;14.20;99.90;;;;;;5044304;28;20041;-73
2023/05/03 06:11:50;;;;;;;8.57;4.90;;;14.30;99.90;;;;;;5061995;28;20033;-78
2023/05/03 06:14:51;;;;;;;8.75;5.13;;;14.30;99.90;;;;;;5054839;28;20049;-76
2023/05/03 06:17:29;;;;;;;9.30;5.28;;;14.30;99.90;;;;;;5017061;28;20068;-74
2023/05/03 06:19:57;;;;;;;6.20;4.43;;;14.30;99.90;;;;;;5056944;28;20032;-80
2023/05/03 06:22:25;;;;;;;7.25;4.63;;;14.40;99.90;;;;;;5047215;28;20053;-75
2023/05/03 06:24:54;;;;;;;7.68;4.50;;;14.40;99.90;;;;;;5030354;28;20050;-73
2023/05/03 06:27:22;;;;;;;8.48;4.68;;;14.50;99.90;;;;;;5000085;28;20053;-77
2023/05/03 06:29:53;;;;;;;6.57;4.70;;;14.50;99.90;;;;;;5025355;28;20053;-75
2023/05/03 06:32:24;;;;;;;11.02;4.60;;;14.40;99.90;;;;;;5022147;28;20495;-74
2023/05/03 06:34:55;;;;;;;;;;;14.50;99.90;;;;;;5026706;28;20100;-77
2023/05/03 06:37:42;;;;;;;7.93;4.50;;;14.50;99.90;;;;;;5036520;28;19949;-75
2023/05/03 06:40:26;;;;;;;7.47;4.38;;;14.60;99.90;;;;;;5001002;28;20129;-75
2023/05/03 06:43:25;;;;;;;7.00;4.18;;;14.60;99.90;;;;;;4988492;28;20053;-73
2023/05/03 06:45:56;;;;;;;7.90;4.70;;;14.70;99.90;;;;;;5010945;28;20048;-77
2023/05/03 06:48:45;;;;;;;8.13;4.43;;;14.70;99.90;;;;;;5016013;28;20056;-76
2023/05/03 06:51:54;;;;;;;7.88;4.55;;;14.70;99.90;;;;;;5059667;23;20104;-75
2023/05/03 06:54:59;;;;;;;7.85;4.50;;;14.70;99.90;;;;;;5040681;28;20064;-76
2023/05/03 06:57:26;;;;;;;9.18;5.20;;;14.60;99.90;;;;;;5027202;28;20483;-74
2023/05/03 07:00:09;;;;;;;6.57;4.38;;;14.60;99.90;;;;;;5019781;28;20129;-76
2023/05/03 07:02:48;;;;;;;9.02;5.30;;;14.60;99.90;;;;;;5042425;28;20189;-75
2023/05/03 07:05:21;;;;;;;8.30;4.80;;;14.60;99.90;;;;;;5044878;28;20053;-77
2023/05/03 07:08:02;;;;;;;8.55;5.18;;;14.70;99.90;;;;;;5022811;28;20052;-80
2023/05/03 07:10:43;;;;;;;6.53;4.50;;;14.70;99.90;;;;;;5022164;28;20069;-74
2023/05/03 07:13:31;;;;;;;8.38;4.63;;;14.80;99.90;;;;;;5023377;28;20056;-76
2023/05/03 07:16:12;;;;;;;7.13;4.55;;;14.80;99.90;;;;;;5035095;28;20438;-73
2023/05/03 07:19:05;;;;;;;8.05;4.63;;;14.70;99.90;;;;;;5046390;28;20087;-76
2023/05/03 07:21:42;;;;;;;6.80;4.80;;;14.70;99.90;;;;;;5030782;28;20049;-78
2023/05/03 07:24:17;;;;;;;6.78;4.43;;;14.60;99.90;;;;;;5004728;28;20499;-73
2023/05/03 07:26:53;;;;;;;9.00;4.72;;;14.60;99.90;;;;;;5027871;28;20075;-77
2023/05/03 07:29:22;;;;;;;10.32;4.57;;;14.60;99.90;;;;;;5025805;28;20049;-78
2023/05/03 07:31:50;;;;;;;7.88;4.60;;;14.60;99.90;;;;;;5023753;28;20063;-80
2023/05/03 07:34:37;;;;;;;8.52;4.68;;;14.60;99.90;;;;;;5034745;28;20057;-75
2023/05/03 07:37:22;;;;;;;8.88;4.30;;;14.80;99.90;;;;;;5043080;28;20354;-74
2023/05/03 07:40:07;;;;;;;7.97;4.65;;;14.90;99.90;;;;;;5016942;28;20056;-80
2023/05/03 07:42:36;;;;;;;6.88;4.47;;;15.00;99.90;;;;;;5009647;28;20187;-81
2023/05/03 07:45:12;;;;;;;8.38;4.20;;;14.90;99.90;;;;;;5036572;28;20045;-78
2023/05/03 07:47:48;;;;;;;6.82;4.35;;;14.90;99.90;;;;;;5034380;28;20049;-78
2023/05/03 07:50:16;;;;;;;12.18;4.53;;;15.00;99.90;;;;;;5043415;28;20050;-72
2023/05/03 07:53:03;;;;;;;7.25;4.20;;;15.00;99.90;;;;;;5026663;28;20074;-76
2023/05/03 07:55:36;;;;;;;6.00;3.88;;;15.10;99.90;;;;;;5042949;28;20052;-77
2023/05/03 07:58:22;;;;;;;6.30;3.92;;;15.20;99.90;;;;;;5016883;28;20132;-76
2023/05/03 08:01:09;;;;;;;5.20;4.05;;;15.00;99.90;;;;;;5025074;28;20053;-73
2023/05/03 08:03:49;;;;;;;7.03;3.95;;;14.80;99.90;;;;;;5024152;28;20084;-74
2023/05/03 08:06:26;;;;;;;6.28;3.90;;;15.10;99.90;;;;;;5022465;28;20520;-75
2023/05/03 08:09:04;;;;;;;5.90;3.88;;;15.20;99.90;;;;;;5022223;28;20042;-79
2023/05/03 08:12:02;;;;;;;6.07;3.80;;;15.40;99.90;;;;;;5048523;28;20057;-76
2023/05/03 08:14:41;;;;;;;5.85;3.70;;;15.80;99.90;;;;;;5027034;28;20068;-76
2023/05/03 08:17:25;;;;;;;5.35;3.78;;;15.90;99.90;;;;;;5015428;28;20049;-75
2023/05/03 08:20:06;;;;;;;5.70;3.72;;;15.60;99.90;;;;;;5024936;28;20145;-76
2023/05/03 08:22:46;;;;;;;6.65;3.78;;;15.60;99.90;;;;;;5023142;28;20053;-78
2023/05/03 08:25:27;;;;;;;7.20;3.72;;;15.50;99.90;;;;;;5013629;28;20051;-76
2023/05/03 08:28:21;;;;;;;6.43;3.88;;;15.60;99.90;;;;;;5030581;28;20128;-76
2023/05/03 08:30:51;;;;;;;6.03;3.60;;;15.70;99.90;;;;;;5045412;28;20045;-77
2023/05/03 08:33:30;;;;;;;5.70;3.80;;;15.80;99.90;;;;;;5041131;28;20466;-76
2023/05/03 08:36:05;;;;;;;7.03;4.13;;;15.80;99.90;;;;;;5028190;28;20061;-75
2023/05/03 08:38:42;;;;;;;5.03;3.38;;;15.90;99.90;;;;;;5040274;28;20049;-75
2023/05/03 08:41:55;;;;;;;8.32;3.65;;;15.90;99.90;;;;;;5024670;28;20066;-74
2023/05/03 08:44:51;;;;;;;5.88;3.50;;;16.10;99.90;;;;;;5028896;28;20096;-75
2023/05/03 08:47:46;;;;;;;5.25;3.50;;;16.10;99.90;;;;;;5025942;28;20392;-78
2023/05/03 08:50:21;;;;;;;7.22;3.47;;;16.00;99.90;;;;;;5007224;28;20058;-74
2023/05/03 08:52:48;;;;;;;5.30;3.63;;;15.80;99.90;;;;;;5040667;28;20109;-78
2023/05/03 08:55:16;;;;;;;6.78;3.67;;;15.70;99.90;;;;;;5032175;28;20103;-73
2023/05/03 08:57:56;;;;;;;6.90;3.35;;;16.00;99.90;;;;;;5033673;23;20144;-75
2023/05/03 09:00:35;;;;;;;6.60;3.45;;;16.00;99.90;;;;;;5026188;28;20498;-75
2023/05/03 09:03:47;;;;;;;4.80;3.45;;;16.10;99.90;;;;;;5018082;28;20076;-75
2023/05/03 09:06:43;;;;;;;6.38;3.22;;;16.30;99.90;;;;;;5029394;28;20139;-75
2023/05/03 09:09:50;;;;;;;5.20;3.60;;;16.50;99.90;;;;;;4994624;28;20058;-76
2023/05/03 09:12:44;;;;;;;6.93;3.15;;;17.10;99.90;;;;;;5054088;23;20049;-74
2023/05/03 09:15:25;;;;;;;6.32;3.30;;;17.10;99.90;;;;;;5034432;28;20454;-75
2023/05/03 09:21:30;;;;;;;6.78;3.22;;;17.40;99.90;;;;;;5020690;28;20050;-77
2023/05/03 09:24:24;;;;;;;6.40;3.17;;;17.80;99.90;;;;;;5020262;28;20056;-75
2023/05/03 09:27:20;;;;;;;7.60;3.10;;;17.80;99.90;;;;;;4998720;28;20078;-75
2023/05/03 09:30:18;;;;;;;6.22;3.25;;;17.70;99.90;;;;;;5020333;28;20438;-73
2023/05/03 09:33:21;;;;;;;4.53;2.90;;;17.50;99.90;;;;;;5015505;28;20062;-76
2023/05/03 09:36:10;;;;;;;5.20;2.78;;;17.50;99.90;;;;;;5009635;23;20045;-76
2023/05/03 09:38:51;;;;;;;4.15;2.50;;;17.50;99.90;;;;;;5006468;28;20120;-74
2023/05/03 09:41:30;;;;;;;4.63;2.70;;;17.70;99.90;;;;;;5003748;28;20041;-76
2023/05/03 09:44:01;;;;;;;7.78;3.33;;;18.00;99.90;;;;;;5016130;28;20510;-77
2023/05/03 09:46:38;;;;;;;5.20;3.20;;;17.90;99.90;;;;;;5000507;28;20064;-78
2023/05/03 09:49:06;;;;;;;8.18;3.67;;;18.20;99.90;;;;;;5023365;28;20049;-73
2023/05/03 09:51:40;;;;;;;7.15;3.30;;;18.70;99.90;;;;;;4998595;28;20045;-73
2023/05/03 09:54:10;;;;;;;5.93;3.05;;;18.60;99.90;;;;;;5035261;28;20046;-74
2023/05/03 09:57:04;;;;;;;4.55;2.90;;;18.40;99.90;;;;;;5006137;28;20438;-76
2023/05/03 09:59:53;;;;;;;5.13;2.78;;;18.70;99.90;;;;;;5045873;23;20052;-75
2023/05/03 10:02:37;;;;;;;5.57;2.88;;;19.10;99.90;;;;;;4988305;23;20049;-73
2023/05/03 10:05:21;;;;;;;5.93;3.25;;;18.90;99.90;;;;;;5014983;28;20144;-76
2023/05/03 10:08:10;;;;;;;4.20;2.67;;;18.60;99.90;;;;;;5005897;28;20099;-75
2023/05/03 10:11:11;;;;;;;3.67;2.45;;;18.00;99.90;;;;;;5021149;28;20128;-74
2023/05/03 10:13:48;;;;;;;3.30;2.15;;;17.70;99.90;;;;;;4996950;28;20069;-77
2023/05/03 10:16:28;;;;;;;4.57;2.65;;;17.70;99.90;;;;;;4973069;28;20041;-76
2023/05/03 10:19:13;;;;;;;5.38;2.40;;;17.70;99.90;;;;;;4980770;28;20592;-74
2023/05/03 10:22:10;;;;;;;4.07;2.88;;;17.50;99.90;;;;;;4990760;28;20108;-75
2023/05/03 10:25:01;;;;;;;5.05;3.05;;;17.40;99.90;;;;;;4981420;28;20057;-73
2023/05/03 10:27:47;;;;;;;4.25;2.83;;;17.30;99.90;;;;;;4984590;28;20054;-75
2023/05/03 10:30:25;;;;;;;4.57;2.88;;;17.20;99.90;;;;;;4985767;28;20061;-72
2023/05/03 10:32:55;;;;;;;3.45;2.50;;;17.40;99.90;;;;;;5013571;28;20048;-73
2023/05/03 10:36:14;;;;;;;4.50;3.00;;;17.30;99.90;;;;;;4992978;28;20403;-76
2023/05/03 10:39:20;;;;;;;4.97;2.53;;;17.30;99.90;;;;;;4992019;28;20072;-74
2023/05/03 10:46:55;;;;;;;6.78;3.35;;;17.30;99.90;;;;;;5001865;28;20132;-78
2023/05/03 10:50:15;;;;;;;6.13;2.88;;;17.40;99.90;;;;;;5029654;23;20061;-77
2023/05/03 10:52:57;;;;;;;8.38;3.00;;;17.40;99.90;;;;;;5008459;28;20084;-77
2023/05/03 10:55:26;;;;;;;4.78;2.72;;;17.40;99.90;;;;;;5027018;28;20060;-75
2023/05/03 10:57:59;;;;;;;4.07;2.70;;;17.30;99.90;;;;;;5030613;23;20394;-74
2023/05/03 11:05:07;;;;;;;5.05;2.70;;;17.20;99.90;;;;;;5759958;22;20414;-77
2023/05/03 11:11:51;;;;;;;5.03;2.83;;;17.30;99.90;;;;;;4903497;29;20104;-76
2023/05/03 11:14:33;;;;;;;5.13;2.88;;;17.50;99.90;;;;;;4897988;29;20166;-78
2023/05/03 11:21:36;;;;;;;4.63;2.80;;;17.40;99.90;;;;;;4911565;29;20047;-79
2023/05/03 11:26:00;;;;;;;;;;;;;;;;;;;;;
2023/05/03 11:29:33;;;;;;;6.63;2.47;;;17.60;99.90;;;;;;4898768;29;20207;-79
2023/05/03 11:38:37;;;;;;;4.35;2.40;;;17.70;99.90;;;;;;5119905;22;20056;-79
2023/05/03 11:42:11;;;;;;;5.10;2.20;;;18.10;99.90;;;;;;4989427;28;20057;-78
2023/05/03 11:44:57;;;;;;;10.55;2.70;;;18.20;99.90;;;;;;5015434;28;20043;-77
2023/05/03 11:48:38;;;;;;;4.25;2.20;;;18.70;99.90;;;;;;4955563;28;20043;-78
2023/05/03 11:51:42;;;;;;;4.28;2.60;;;18.20;99.90;;;;;;4946193;29;20337;-79
2023/05/03 11:55:18;;;;;;;2.75;1.92;;;18.20;99.90;;;;;;4963076;28;20051;-79
2023/05/03 12:00:44;;;;;;;5.38;2.55;;;17.70;99.90;;;;;;4942470;29;20059;-82
2023/05/03 12:03:07;;;;;;;3.75;2.28;;;17.40;99.90;;;;;;4871327;29;20598;-79
2023/05/03 12:08:56;;;;;;;5.45;3.00;;;17.20;99.90;;;;;;5193292;23;20494;-79
2023/05/03 12:15:05;;;;;;;6.65;2.72;;;17.20;99.90;;;;;;5202998;22;20243;-79
2023/05/03 12:22:23;;;;;;;4.40;2.00;;;17.20;99.90;;;;;;5002440;28;20103;-79
2023/05/03 12:29:24;;;;;;;3.92;2.42;;;17.20;99.90;;;;;;4990060;28;20238;-76
2023/05/03 12:32:07;;;;;;;3.60;2.40;;;16.90;99.90;;;;;;4943833;29;20577;-78
2023/05/03 12:38:11;;;;;;;4.90;2.15;;;16.80;99.90;;;;;;5051762;28;20631;-77
2023/05/03 12:45:32;;;;;;;4.93;2.38;;;16.60;99.90;;;;;;5403993;22;20095;-77
2023/05/03 12:48:32;;;;;;;2.78;2.20;;;16.30;99.90;;;;;;4960692;28;20137;-78
2023/05/03 12:57:49;;;;;;;3.50;2.40;;;16.20;99.90;;;;;;5193202;22;21230;-78
2023/05/03 13:00:57;;;;;;;4.80;2.40;;;16.30;99.90;;;;;;5004953;28;20050;-78
2023/05/03 13:04:16;;;;;;;4.03;2.28;;;16.30;99.90;;;;;;5014726;28;20061;-76
2023/05/03 13:07:31;;;;;;;;;;;;;;;;;;;;;
2023/05/03 13:10:48;;;;;;;10.98;4.90;;;16.40;99.90;;;;;;4992244;28;20054;-78
2023/05/03 13:14:16;;;;;;;5.22;2.70;;;16.20;99.90;;;;;;5009764;28;20057;-77
2023/05/03 13:22:31;;;;;;;;;;;;;;;;;;;;;
2023/05/03 13:28:45;;;;;;;5.30;2.70;;;16.70;99.90;;;;;;5004384;28;20053;-76
2023/05/03 13:31:28;;;;;;;5.25;2.67;;;17.10;99.90;;;;;;5342418;22;20369;-78
2023/05/03 13:34:48;;;;;;;4.82;2.75;;;17.40;99.90;;;;;;5028606;28;20136;-78
2023/05/03 13:48:06;;;;;;;3.88;2.33;;;18.00;99.90;;;;;;5217010;22;20050;-78
2023/05/03 13:50:47;;;;;;;5.35;2.58;;;19.40;99.90;;;;;;5000305;28;20462;-77
2023/05/03 13:56:34;;;;;;;6.03;2.10;;;19.40;99.90;;;;;;519607;26;20349;-76
2023/05/03 14:08:03;;;;;;;3.33;1.95;;;18.50;99.90;;;;;;3912939;26;20041;-75
2023/05/03 14:14:26;;;;;;;4.80;2.30;;;17.60;99.90;;;;;;5032179;28;19921;-77
2023/05/03 14:21:08;;;;;;;4.15;2.40;;;17.30;99.90;;;;;;5067937;22;20048;-80
2023/05/03 14:44:06;;;;;;;5.57;3.00;;;17.00;99.90;;;;;;5017899;28;20046;-78
2023/05/03 14:47:38;;;;;;;5.90;3.33;;;17.00;99.90;;;;;;5032002;28;20041;-78
2023/05/03 15:02:18;;;;;;;5.40;3.25;;;16.70;99.90;;;;;;5014910;28;20050;-78
2023/05/03 15:17:46;;;;;;;4.50;3.10;;;16.80;99.90;;;;;;4773538;22;9727352;-80
2023/05/03 15:20:40;;;;;;;6.53;3.20;;;17.00;99.90;;;;;;5025625;28;20069;-79
2023/05/03 15:35:15;;;;;;;5.57;3.03;;;16.60;99.90;;;;;;5133048;22;20049;-75
2023/05/03 15:37:53;;;;;;;6.40;3.40;;;16.50;99.90;;;;;;5041463;28;20501;-75
2023/05/03 15:40:36;;;;;;;7.53;3.42;;;16.40;99.90;;;;;;5009193;28;20068;-77
2023/05/03 15:43:18;;;;;;;7.95;3.20;;;16.30;99.90;;;;;;5019631;28;20049;-75
2023/05/03 15:46:07;;;;;;;5.65;3.58;;;16.40;99.90;;;;;;5011328;28;20104;-75
2023/05/03 15:48:43;;;;;;;16.88;9.63;;;16.30;99.90;;;;;;5006395;28;20050;-74
2023/05/03 15:51:16;;;;;;;26.13;14.48;;;16.30;99.90;;;;;;5005756;28;20406;-78
2023/05/03 15:53:45;;;;;;;19.33;11.82;;;16.40;99.90;;;;;;5018066;28;20053;-75
2023/05/03 15:56:45;;;;;;;26.30;16.75;;;16.40;99.90;;;;;;5089606;22;20079;-77
2023/05/03 15:59:52;;;;;;;14.63;8.55;;;16.40;99.90;;;;;;4998441;28;20053;-75
2023/05/03 16:02:20;;;;;;;23.02;14.48;;;16.20;99.90;;;;;;5042655;28;20065;-75
2023/05/03 16:05:09;;;;;;;6.55;4.90;;;16.20;99.90;;;;;;5033317;28;20066;-77
2023/05/03 16:07:51;;;;;;;8.32;3.55;;;16.20;99.90;;;;;;4974298;23;20110;-76
2023/05/03 16:10:28;;;;;;;5.63;3.50;;;16.00;99.90;;;;;;4981071;28;20047;-74
2023/05/03 16:13:35;;;;;;;7.13;3.38;;;15.90;99.90;;;;;;4969380;28;20046;-74
2023/05/03 16:16:28;;;;;;;5.72;3.20;;;15.90;99.90;;;;;;4967202;28;20067;-76
2023/05/03 16:19:15;;;;;;;5.18;3.53;;;15.80;99.90;;;;;;4943343;29;20061;-77
2023/05/03 16:21:43;;;;;;;6.70;3.33;;;15.90;99.90;;;;;;4991775;23;20058;-76
2023/05/03 16:24:17;;;;;;;6.15;3.60;;;15.80;99.90;;;;;;4986863;28;20097;-75
2023/05/03 16:27:17;;;;;;;7.55;3.70;;;15.80;99.90;;;;;;4985828;28;20431;-77
2023/05/03 16:30:09;;;;;;;4.57;3.20;;;15.80;99.90;;;;;;4972032;28;20108;-74
2023/05/03 16:32:42;;;;;;;5.40;3.33;;;15.70;99.90;;;;;;4997280;28;20508;-76
2023/05/03 16:35:56;;;;;;;5.15;3.42;;;15.70;99.90;;;;;;4984499;28;20133;-76
2023/05/03 16:38:45;;;;;;;5.55;3.60;;;15.70;99.90;;;;;;4971249;28;20061;-76
2023/05/03 16:41:41;;;;;;;5.55;3.83;;;15.70;99.90;;;;;;4985672;28;20082;-76
2023/05/03 16:44:29;;;;;;;6.65;4.13;;;15.60;99.90;;;;;;4980567;28;20059;-77